Meadows, New Hampshire
Current Conditions -  °F | °C
As of 8:52 AM on Monday 22 Dec 2014 (Local Time) from KHIE Reporting Station
Overcast Overcast  
Wind Chill: 26°   Ceiling: 3300
Heat Index: 26°   Visibility: 8mi
Dew Point: 22°   Wind: 0mph
Humidity: 84%   Direction: NA
Pressure: 30.36"   Gusts: NA
Location:  44.36°N, 71.46°W
Report Text: KHIE 221352Z AUTO 00000KT 8SM OVC033 M03/M06 A3036 RMK AO2 SLP297 T10331056
Loading
Personal Weather Stations






























Interactive Weather Map New forecast layout! Learn more

10-Day Weather Forecast

Advertisements
Track Severe Weather on mobile